sensor_id;sensor_type;location;lat;lon;timestamp;temperature;humidity
12264;DHT22;6194;49.010;8.414;2023-10-19T00:01:58;11.00;99.90
12264;DHT22;6194;49.010;8.414;2023-10-19T00:04:27;11.00;99.90
12264;DHT22;6194;49.010;8.414;2023-10-19T00:06:56;11.00;99.90
12264;DHT22;6194;49.010;8.414;2023-10-19T00:09:22;11.00;99.90
12264;DHT22;6194;49.010;8.414;2023-10-19T00:11:48;11.10;99.90
12264;DHT22;6194;49.010;8.414;2023-10-19T00:14:17;11.00;99.90
12264;DHT22;6194;49.010;8.414;2023-10-19T00:16:44;11.10;99.90
12264;DHT22;6194;49.010;8.414;2023-10-19T00:19:16;11.00;99.90
12264;DHT22;6194;49.010;8.414;2023-10-19T00:21:48;11.10;99.90
12264;DHT22;6194;49.010;8.414;2023-10-19T00:24:18;11.10;99.90
12264;DHT22;6194;49.010;8.414;2023-10-19T00:26:45;11.10;99.90
12264;DHT22;6194;49.010;8.414;2023-10-19T00:29:11;11.10;99.90
12264;DHT22;6194;49.010;8.414;2023-10-19T00:31:56;11.00;99.90
12264;DHT22;6194;49.010;8.414;2023-10-19T00:34:22;11.00;99.90
12264;DHT22;6194;49.010;8.414;2023-10-19T00:36:49;11.00;99.90
12264;DHT22;6194;49.010;8.414;2023-10-19T00:39:16;11.10;99.90
12264;DHT22;6194;49.010;8.414;2023-10-19T00:41:47;11.10;99.90
12264;DHT22;6194;49.010;8.414;2023-10-19T00:44:13;11.10;99.90
12264;DHT22;6194;49.010;8.414;2023-10-19T00:46:42;11.10;99.90
12264;DHT22;6194;49.010;8.414;2023-10-19T00:49:08;11.20;99.90
12264;DHT22;6194;49.010;8.414;2023-10-19T00:51:50;11.10;99.90
12264;DHT22;6194;49.010;8.414;2023-10-19T00:54:26;11.10;99.90
12264;DHT22;6194;49.010;8.414;2023-10-19T00:56:57;11.10;99.90
12264;DHT22;6194;49.010;8.414;2023-10-19T00:59:26;11.10;99.90
12264;DHT22;6194;49.010;8.414;2023-10-19T01:02:01;11.10;99.90
12264;DHT22;6194;49.010;8.414;2023-10-19T01:05:02;11.00;99.90
12264;DHT22;6194;49.010;8.414;2023-10-19T01:07:31;11.00;99.90
12264;DHT22;6194;49.010;8.414;2023-10-19T01:10:03;11.00;99.90
12264;DHT22;6194;49.010;8.414;2023-10-19T01:12:31;11.00;99.90
12264;DHT22;6194;49.010;8.414;2023-10-19T01:15:20;11.20;99.90
12264;DHT22;6194;49.010;8.414;2023-10-19T01:17:58;11.00;99.90
12264;DHT22;6194;49.010;8.414;2023-10-19T01:20:25;11.10;99.90
12264;DHT22;6194;49.010;8.414;2023-10-19T01:22:58;11.00;99.90
12264;DHT22;6194;49.010;8.414;2023-10-19T01:28:17;11.00;99.90
12264;DHT22;6194;49.010;8.414;2023-10-19T01:30:44;11.10;99.90
12264;DHT22;6194;49.010;8.414;2023-10-19T01:33:10;11.10;99.90
12264;DHT22;6194;49.010;8.414;2023-10-19T01:35:39;11.10;99.90
12264;DHT22;6194;49.010;8.414;2023-10-19T01:38:23;11.20;99.90
12264;DHT22;6194;49.010;8.414;2023-10-19T01:40:50;11.10;99.90
12264;DHT22;6194;49.010;8.414;2023-10-19T01:43:17;11.10;99.90
12264;DHT22;6194;49.010;8.414;2023-10-19T01:45:52;11.20;99.90
12264;DHT22;6194;49.010;8.414;2023-10-19T01:48:20;11.30;99.90
12264;DHT22;6194;49.010;8.414;2023-10-19T01:50:48;11.20;99.90
12264;DHT22;6194;49.010;8.414;2023-10-19T01:53:16;11.10;99.90
12264;DHT22;6194;49.010;8.414;2023-10-19T01:55:44;11.10;99.90
12264;DHT22;6194;49.010;8.414;2023-10-19T01:58:12;11.10;99.90
12264;DHT22;6194;49.010;8.414;2023-10-19T02:00:40;11.00;99.90
12264;DHT22;6194;49.010;8.414;2023-10-19T02:03:08;11.00;99.90
12264;DHT22;6194;49.010;8.414;2023-10-19T02:05:34;11.00;99.90
12264;DHT22;6194;49.010;8.414;2023-10-19T02:08:07;11.00;99.90
12264;DHT22;6194;49.010;8.414;2023-10-19T02:10:34;11.00;99.90
12264;DHT22;6194;49.010;8.414;2023-10-19T02:13:01;11.00;99.90
12264;DHT22;6194;49.010;8.414;2023-10-19T02:15:32;11.10;99.90
12264;DHT22;6194;49.010;8.414;2023-10-19T02:18:00;11.10;99.90
12264;DHT22;6194;49.010;8.414;2023-10-19T02:20:27;11.10;99.90
12264;DHT22;6194;49.010;8.414;2023-10-19T02:22:54;11.20;99.90
12264;DHT22;6194;49.010;8.414;2023-10-19T02:25:25;11.30;99.90
12264;DHT22;6194;49.010;8.414;2023-10-19T02:27:53;11.30;99.90
12264;DHT22;6194;49.010;8.414;2023-10-19T02:30:19;11.40;99.90
12264;DHT22;6194;49.010;8.414;2023-10-19T02:32:45;11.50;99.90
12264;DHT22;6194;49.010;8.414;2023-10-19T02:35:13;11.50;99.90
12264;DHT22;6194;49.010;8.414;2023-10-19T02:37:40;11.50;99.90
12264;DHT22;6194;49.010;8.414;2023-10-19T02:40:05;11.60;99.90
12264;DHT22;6194;49.010;8.414;2023-10-19T02:42:45;11.60;99.90
12264;DHT22;6194;49.010;8.414;2023-10-19T02:45:15;11.60;99.90
12264;DHT22;6194;49.010;8.414;2023-10-19T02:47:44;11.60;99.90
12264;DHT22;6194;49.010;8.414;2023-10-19T02:50:11;11.60;99.90
12264;DHT22;6194;49.010;8.414;2023-10-19T02:52:42;11.60;99.90
12264;DHT22;6194;49.010;8.414;2023-10-19T02:55:09;11.30;99.90
12264;DHT22;6194;49.010;8.414;2023-10-19T02:57:36;11.60;99.90
12264;DHT22;6194;49.010;8.414;2023-10-19T03:00:05;11.70;99.90
12264;DHT22;6194;49.010;8.414;2023-10-19T03:02:36;11.70;99.90
12264;DHT22;6194;49.010;8.414;2023-10-19T03:05:03;11.70;99.90
12264;DHT22;6194;49.010;8.414;2023-10-19T03:07:39;11.70;99.90
12264;DHT22;6194;49.010;8.414;2023-10-19T03:10:06;11.70;99.90
12264;DHT22;6194;49.010;8.414;2023-10-19T03:12:32;11.80;99.90
12264;DHT22;6194;49.010;8.414;2023-10-19T03:14:58;11.70;99.90
12264;DHT22;6194;49.010;8.414;2023-10-19T03:17:25;11.80;99.90
12264;DHT22;6194;49.010;8.414;2023-10-19T03:19:52;11.80;99.90
12264;DHT22;6194;49.010;8.414;2023-10-19T03:22:18;11.80;99.90
12264;DHT22;6194;49.010;8.414;2023-10-19T03:24:44;11.80;99.90
12264;DHT22;6194;49.010;8.414;2023-10-19T03:27:14;11.70;99.90
12264;DHT22;6194;49.010;8.414;2023-10-19T03:29:42;11.70;99.90
12264;DHT22;6194;49.010;8.414;2023-10-19T03:32:11;11.70;99.90
12264;DHT22;6194;49.010;8.414;2023-10-19T03:34:38;11.70;99.90
12264;DHT22;6194;49.010;8.414;2023-10-19T03:37:04;11.70;99.90
12264;DHT22;6194;49.010;8.414;2023-10-19T03:39:34;11.70;99.90
12264;DHT22;6194;49.010;8.414;2023-10-19T03:42:03;11.80;99.90
12264;DHT22;6194;49.010;8.414;2023-10-19T03:44:34;11.80;99.90
12264;DHT22;6194;49.010;8.414;2023-10-19T03:47:16;11.80;99.90
12264;DHT22;6194;49.010;8.414;2023-10-19T03:49:49;11.80;99.90
12264;DHT22;6194;49.010;8.414;2023-10-19T03:52:14;11.90;99.90
12264;DHT22;6194;49.010;8.414;2023-10-19T03:54:40;11.90;99.90
12264;DHT22;6194;49.010;8.414;2023-10-19T03:57:15;11.90;99.90
12264;DHT22;6194;49.010;8.414;2023-10-19T03:59:45;11.90;99.90
12264;DHT22;6194;49.010;8.414;2023-10-19T04:02:12;11.90;99.90
12264;DHT22;6194;49.010;8.414;2023-10-19T04:04:43;11.80;99.90
12264;DHT22;6194;49.010;8.414;2023-10-19T04:07:12;11.80;99.90
12264;DHT22;6194;49.010;8.414;2023-10-19T04:09:57;11.70;99.90
12264;DHT22;6194;49.010;8.414;2023-10-19T04:12:26;11.60;99.90
12264;DHT22;6194;49.010;8.414;2023-10-19T04:14:54;11.40;99.90
12264;DHT22;6194;49.010;8.414;2023-10-19T04:17:20;11.30;99.90
12264;DHT22;6194;49.010;8.414;2023-10-19T04:19:47;11.20;99.90
12264;DHT22;6194;49.010;8.414;2023-10-19T04:22:20;11.10;99.90
12264;DHT22;6194;49.010;8.414;2023-10-19T04:24:50;11.00;99.90
12264;DHT22;6194;49.010;8.414;2023-10-19T04:27:16;11.00;99.90
12264;DHT22;6194;49.010;8.414;2023-10-19T04:29:41;10.90;99.90
12264;DHT22;6194;49.010;8.414;2023-10-19T04:32:09;10.80;99.90
12264;DHT22;6194;49.010;8.414;2023-10-19T04:34:40;10.80;99.90
12264;DHT22;6194;49.010;8.414;2023-10-19T04:37:06;10.80;99.90
12264;DHT22;6194;49.010;8.414;2023-10-19T04:39:32;10.70;99.90
12264;DHT22;6194;49.010;8.414;2023-10-19T04:41:59;10.70;99.90
12264;DHT22;6194;49.010;8.414;2023-10-19T04:44:25;10.70;99.90
12264;DHT22;6194;49.010;8.414;2023-10-19T04:46:50;10.60;99.90
12264;DHT22;6194;49.010;8.414;2023-10-19T04:49:16;10.60;99.90
12264;DHT22;6194;49.010;8.414;2023-10-19T04:51:42;10.50;99.90
12264;DHT22;6194;49.010;8.414;2023-10-19T04:54:09;10.60;99.90
12264;DHT22;6194;49.010;8.414;2023-10-19T04:56:35;10.40;99.90
12264;DHT22;6194;49.010;8.414;2023-10-19T04:59:03;10.40;99.90
12264;DHT22;6194;49.010;8.414;2023-10-19T05:01:29;10.40;99.90
12264;DHT22;6194;49.010;8.414;2023-10-19T05:03:54;10.40;99.90
12264;DHT22;6194;49.010;8.414;2023-10-19T05:06:20;10.40;99.90
12264;DHT22;6194;49.010;8.414;2023-10-19T05:08:47;10.40;99.90
12264;DHT22;6194;49.010;8.414;2023-10-19T05:11:13;10.40;99.90
12264;DHT22;6194;49.010;8.414;2023-10-19T05:13:38;10.30;99.90
12264;DHT22;6194;49.010;8.414;2023-10-19T05:16:05;10.30;99.90
12264;DHT22;6194;49.010;8.414;2023-10-19T05:18:30;10.30;99.90
12264;DHT22;6194;49.010;8.414;2023-10-19T05:20:56;10.50;99.90
12264;DHT22;6194;49.010;8.414;2023-10-19T05:23:25;10.40;99.90
12264;DHT22;6194;49.010;8.414;2023-10-19T05:25:52;10.40;99.90
12264;DHT22;6194;49.010;8.414;2023-10-19T05:28:19;10.50;99.90
12264;DHT22;6194;49.010;8.414;2023-10-19T05:30:44;10.50;99.90
12264;DHT22;6194;49.010;8.414;2023-10-19T05:33:10;10.50;99.90
12264;DHT22;6194;49.010;8.414;2023-10-19T05:35:36;10.50;99.90
12264;DHT22;6194;49.010;8.414;2023-10-19T05:38:06;10.50;99.90
12264;DHT22;6194;49.010;8.414;2023-10-19T05:40:32;10.50;99.90
12264;DHT22;6194;49.010;8.414;2023-10-19T05:42:59;10.50;99.90
12264;DHT22;6194;49.010;8.414;2023-10-19T05:45:26;10.50;99.90
12264;DHT22;6194;49.010;8.414;2023-10-19T05:47:53;10.60;99.90
12264;DHT22;6194;49.010;8.414;2023-10-19T05:50:18;10.60;99.90
12264;DHT22;6194;49.010;8.414;2023-10-19T05:52:44;10.60;99.90
12264;DHT22;6194;49.010;8.414;2023-10-19T05:55:10;10.60;99.90
12264;DHT22;6194;49.010;8.414;2023-10-19T05:57:40;10.70;99.90
12264;DHT22;6194;49.010;8.414;2023-10-19T06:00:12;10.60;99.90
12264;DHT22;6194;49.010;8.414;2023-10-19T06:02:40;10.70;99.90
12264;DHT22;6194;49.010;8.414;2023-10-19T06:05:06;10.70;99.90
12264;DHT22;6194;49.010;8.414;2023-10-19T06:07:32;10.70;99.90
12264;DHT22;6194;49.010;8.414;2023-10-19T06:09:58;10.70;99.90
12264;DHT22;6194;49.010;8.414;2023-10-19T06:12:26;10.30;99.90
12264;DHT22;6194;49.010;8.414;2023-10-19T06:14:51;10.80;99.90
12264;DHT22;6194;49.010;8.414;2023-10-19T06:17:17;10.80;99.90
12264;DHT22;6194;49.010;8.414;2023-10-19T06:19:44;10.80;99.90
12264;DHT22;6194;49.010;8.414;2023-10-19T06:22:11;10.80;99.90
12264;DHT22;6194;49.010;8.414;2023-10-19T06:24:37;10.90;99.90
12264;DHT22;6194;49.010;8.414;2023-10-19T06:27:03;10.90;99.90
12264;DHT22;6194;49.010;8.414;2023-10-19T06:29:29;10.90;99.90
12264;DHT22;6194;49.010;8.414;2023-10-19T06:31:55;11.00;99.90
12264;DHT22;6194;49.010;8.414;2023-10-19T06:34:20;11.40;99.90
12264;DHT22;6194;49.010;8.414;2023-10-19T06:36:46;11.10;99.90
12264;DHT22;6194;49.010;8.414;2023-10-19T06:39:11;11.20;99.90
12264;DHT22;6194;49.010;8.414;2023-10-19T06:41:39;11.20;99.90
12264;DHT22;6194;49.010;8.414;2023-10-19T06:44:05;11.30;99.90
12264;DHT22;6194;49.010;8.414;2023-10-19T06:46:31;11.40;99.90
12264;DHT22;6194;49.010;8.414;2023-10-19T06:48:57;11.40;99.90
12264;DHT22;6194;49.010;8.414;2023-10-19T06:51:26;11.50;99.90
12264;DHT22;6194;49.010;8.414;2023-10-19T06:53:52;11.60;99.90
12264;DHT22;6194;49.010;8.414;2023-10-19T06:56:18;11.70;99.90
12264;DHT22;6194;49.010;8.414;2023-10-19T06:58:44;11.80;99.90
12264;DHT22;6194;49.010;8.414;2023-10-19T07:01:09;11.90;99.90
12264;DHT22;6194;49.010;8.414;2023-10-19T07:03:36;11.90;99.90
12264;DHT22;6194;49.010;8.414;2023-10-19T07:06:02;11.90;99.90
12264;DHT22;6194;49.010;8.414;2023-10-19T07:08:28;12.00;99.90
12264;DHT22;6194;49.010;8.414;2023-10-19T07:10:54;12.10;99.90
12264;DHT22;6194;49.010;8.414;2023-10-19T07:13:19;12.20;99.90
12264;DHT22;6194;49.010;8.414;2023-10-19T07:15:47;12.10;99.90
12264;DHT22;6194;49.010;8.414;2023-10-19T07:18:14;12.10;99.90
12264;DHT22;6194;49.010;8.414;2023-10-19T07:20:43;12.10;99.90
12264;DHT22;6194;49.010;8.414;2023-10-19T07:23:09;12.10;99.90
12264;DHT22;6194;49.010;8.414;2023-10-19T07:25:52;12.10;99.90
12264;DHT22;6194;49.010;8.414;2023-10-19T07:28:20;12.00;99.90
12264;DHT22;6194;49.010;8.414;2023-10-19T07:30:47;12.10;99.90
12264;DHT22;6194;49.010;8.414;2023-10-19T07:33:14;12.20;99.90
12264;DHT22;6194;49.010;8.414;2023-10-19T07:35:43;12.30;99.90
12264;DHT22;6194;49.010;8.414;2023-10-19T07:38:12;12.30;99.90
12264;DHT22;6194;49.010;8.414;2023-10-19T07:40:39;12.40;99.90
12264;DHT22;6194;49.010;8.414;2023-10-19T07:43:04;12.60;99.90
12264;DHT22;6194;49.010;8.414;2023-10-19T07:45:30;12.60;99.90
12264;DHT22;6194;49.010;8.414;2023-10-19T07:47:57;12.70;99.90
12264;DHT22;6194;49.010;8.414;2023-10-19T07:50:23;12.90;99.90
12264;DHT22;6194;49.010;8.414;2023-10-19T07:52:53;13.00;99.90
12264;DHT22;6194;49.010;8.414;2023-10-19T07:55:20;13.10;99.90
12264;DHT22;6194;49.010;8.414;2023-10-19T07:57:50;13.20;99.90
12264;DHT22;6194;49.010;8.414;2023-10-19T08:00:16;13.30;99.90
12264;DHT22;6194;49.010;8.414;2023-10-19T08:02:43;13.50;99.90
12264;DHT22;6194;49.010;8.414;2023-10-19T08:05:12;13.60;99.90
12264;DHT22;6194;49.010;8.414;2023-10-19T08:07:41;13.80;99.90
12264;DHT22;6194;49.010;8.414;2023-10-19T08:10:11;14.00;99.90
12264;DHT22;6194;49.010;8.414;2023-10-19T08:12:38;14.10;99.90
12264;DHT22;6194;49.010;8.414;2023-10-19T08:15:07;14.30;99.90
12264;DHT22;6194;49.010;8.414;2023-10-19T08:17:33;14.20;99.90
12264;DHT22;6194;49.010;8.414;2023-10-19T08:19:59;14.30;99.90
12264;DHT22;6194;49.010;8.414;2023-10-19T08:22:28;15.40;99.90
12264;DHT22;6194;49.010;8.414;2023-10-19T08:24:55;14.40;99.90
12264;DHT22;6194;49.010;8.414;2023-10-19T08:27:21;14.40;99.90
12264;DHT22;6194;49.010;8.414;2023-10-19T08:29:49;14.50;99.90
12264;DHT22;6194;49.010;8.414;2023-10-19T08:32:15;14.70;99.90
12264;DHT22;6194;49.010;8.414;2023-10-19T08:34:41;14.80;99.90
12264;DHT22;6194;49.010;8.414;2023-10-19T08:37:07;15.00;99.90
12264;DHT22;6194;49.010;8.414;2023-10-19T08:39:33;15.10;99.90
12264;DHT22;6194;49.010;8.414;2023-10-19T08:42:05;15.20;99.90
12264;DHT22;6194;49.010;8.414;2023-10-19T08:44:33;15.30;99.90
12264;DHT22;6194;49.010;8.414;2023-10-19T08:46:59;15.40;99.90
12264;DHT22;6194;49.010;8.414;2023-10-19T08:49:25;15.50;99.90
12264;DHT22;6194;49.010;8.414;2023-10-19T08:51:54;15.50;99.90
12264;DHT22;6194;49.010;8.414;2023-10-19T08:54:21;15.50;99.90
12264;DHT22;6194;49.010;8.414;2023-10-19T08:56:47;15.40;99.90
12264;DHT22;6194;49.010;8.414;2023-10-19T08:59:14;15.30;99.90
12264;DHT22;6194;49.010;8.414;2023-10-19T09:01:42;15.30;99.90
12264;DHT22;6194;49.010;8.414;2023-10-19T09:04:10;15.30;99.90
12264;DHT22;6194;49.010;8.414;2023-10-19T09:06:37;15.30;99.90
12264;DHT22;6194;49.010;8.414;2023-10-19T09:09:11;15.40;99.90
12264;DHT22;6194;49.010;8.414;2023-10-19T09:11:43;15.40;99.90
12264;DHT22;6194;49.010;8.414;2023-10-19T09:14:08;15.30;99.90
12264;DHT22;6194;49.010;8.414;2023-10-19T09:16:34;15.30;99.90
12264;DHT22;6194;49.010;8.414;2023-10-19T09:19:02;15.30;99.90
12264;DHT22;6194;49.010;8.414;2023-10-19T09:21:27;15.40;99.90
12264;DHT22;6194;49.010;8.414;2023-10-19T09:23:55;15.40;99.90
12264;DHT22;6194;49.010;8.414;2023-10-19T09:26:21;15.50;99.90
12264;DHT22;6194;49.010;8.414;2023-10-19T09:28:51;15.50;99.90
12264;DHT22;6194;49.010;8.414;2023-10-19T09:31:17;15.60;99.90
12264;DHT22;6194;49.010;8.414;2023-10-19T09:33:45;15.70;99.90
12264;DHT22;6194;49.010;8.414;2023-10-19T09:36:12;15.90;99.90
12264;DHT22;6194;49.010;8.414;2023-10-19T09:38:39;16.10;99.90
12264;DHT22;6194;49.010;8.414;2023-10-19T09:41:12;16.40;99.90
12264;DHT22;6194;49.010;8.414;2023-10-19T09:43:41;16.40;99.90
12264;DHT22;6194;49.010;8.414;2023-10-19T09:46:10;16.40;99.90
12264;DHT22;6194;49.010;8.414;2023-10-19T09:48:45;16.50;99.90
12264;DHT22;6194;49.010;8.414;2023-10-19T09:51:11;16.70;99.90
12264;DHT22;6194;49.010;8.414;2023-10-19T09:53:38;16.90;99.90
12264;DHT22;6194;49.010;8.414;2023-10-19T09:56:06;17.00;99.90
12264;DHT22;6194;49.010;8.414;2023-10-19T09:58:49;17.10;99.90
12264;DHT22;6194;49.010;8.414;2023-10-19T10:01:16;17.20;99.90
12264;DHT22;6194;49.010;8.414;2023-10-19T10:03:50;17.40;99.90
12264;DHT22;6194;49.010;8.414;2023-10-19T10:06:28;17.40;99.90
12264;DHT22;6194;49.010;8.414;2023-10-19T10:08:54;17.60;99.90
12264;DHT22;6194;49.010;8.414;2023-10-19T10:11:26;17.80;99.90
12264;DHT22;6194;49.010;8.414;2023-10-19T10:13:53;17.90;99.90
12264;DHT22;6194;49.010;8.414;2023-10-19T10:16:24;18.00;99.90
12264;DHT22;6194;49.010;8.414;2023-10-19T10:18:51;18.00;99.90
12264;DHT22;6194;49.010;8.414;2023-10-19T10:21:23;17.90;99.90
12264;DHT22;6194;49.010;8.414;2023-10-19T10:23:57;17.80;99.90
12264;DHT22;6194;49.010;8.414;2023-10-19T10:26:28;17.60;99.90
12264;DHT22;6194;49.010;8.414;2023-10-19T10:29:13;17.50;99.90
12264;DHT22;6194;49.010;8.414;2023-10-19T10:31:46;17.40;99.90
12264;DHT22;6194;49.010;8.414;2023-10-19T10:37:08;17.20;99.90
12264;DHT22;6194;49.010;8.414;2023-10-19T10:39:35;17.00;99.90
12264;DHT22;6194;49.010;8.414;2023-10-19T10:42:09;16.80;99.90
12264;DHT22;6194;49.010;8.414;2023-10-19T10:44:40;16.60;99.90
12264;DHT22;6194;49.010;8.414;2023-10-19T10:47:20;16.50;99.90
12264;DHT22;6194;49.010;8.414;2023-10-19T10:49:55;16.40;99.90
12264;DHT22;6194;49.010;8.414;2023-10-19T10:52:34;16.30;99.90
12264;DHT22;6194;49.010;8.414;2023-10-19T10:55:14;16.20;99.90
12264;DHT22;6194;49.010;8.414;2023-10-19T10:57:43;16.20;99.90
12264;DHT22;6194;49.010;8.414;2023-10-19T11:00:14;16.10;99.90
12264;DHT22;6194;49.010;8.414;2023-10-19T11:02:45;16.00;99.90
12264;DHT22;6194;49.010;8.414;2023-10-19T11:05:16;16.00;99.90
12264;DHT22;6194;49.010;8.414;2023-10-19T11:10:46;15.90;99.90
12264;DHT22;6194;49.010;8.414;2023-10-19T11:13:13;15.90;99.90
12264;DHT22;6194;49.010;8.414;2023-10-19T11:15:50;15.80;99.90
12264;DHT22;6194;49.010;8.414;2023-10-19T11:20:55;15.70;99.90
12264;DHT22;6194;49.010;8.414;2023-10-19T11:23:55;15.60;99.90
12264;DHT22;6194;49.010;8.414;2023-10-19T11:26:23;15.50;99.90
12264;DHT22;6194;49.010;8.414;2023-10-19T11:28:59;15.40;99.90
12264;DHT22;6194;49.010;8.414;2023-10-19T11:31:26;15.40;99.90
12264;DHT22;6194;49.010;8.414;2023-10-19T11:33:54;15.30;99.90
12264;DHT22;6194;49.010;8.414;2023-10-19T11:36:21;15.30;99.90
12264;DHT22;6194;49.010;8.414;2023-10-19T11:38:49;15.30;99.90
12264;DHT22;6194;49.010;8.414;2023-10-19T11:41:17;15.40;99.90
12264;DHT22;6194;49.010;8.414;2023-10-19T11:43:46;15.30;99.90
12264;DHT22;6194;49.010;8.414;2023-10-19T11:46:12;16.30;99.90
12264;DHT22;6194;49.010;8.414;2023-10-19T11:48:39;15.40;99.90
12264;DHT22;6194;49.010;8.414;2023-10-19T11:51:05;15.30;99.90
12264;DHT22;6194;49.010;8.414;2023-10-19T11:53:37;15.40;99.90
12264;DHT22;6194;49.010;8.414;2023-10-19T11:56:04;15.50;99.90
12264;DHT22;6194;49.010;8.414;2023-10-19T11:58:32;15.60;99.90
12264;DHT22;6194;49.010;8.414;2023-10-19T12:00:59;15.70;99.90
12264;DHT22;6194;49.010;8.414;2023-10-19T12:03:24;15.70;99.90
12264;DHT22;6194;49.010;8.414;2023-10-19T12:05:51;15.70;99.90
12264;DHT22;6194;49.010;8.414;2023-10-19T12:08:18;16.00;99.90
12264;DHT22;6194;49.010;8.414;2023-10-19T12:10:44;15.90;99.90
12264;DHT22;6194;49.010;8.414;2023-10-19T12:13:09;15.90;99.90
12264;DHT22;6194;49.010;8.414;2023-10-19T12:15:35;15.90;99.90
12264;DHT22;6194;49.010;8.414;2023-10-19T12:18:01;15.90;99.90
12264;DHT22;6194;49.010;8.414;2023-10-19T12:20:28;15.90;99.90
12264;DHT22;6194;49.010;8.414;2023-10-19T12:22:59;15.90;99.90
12264;DHT22;6194;49.010;8.414;2023-10-19T12:25:26;15.90;99.90
12264;DHT22;6194;49.010;8.414;2023-10-19T12:27:57;15.90;99.90
12264;DHT22;6194;49.010;8.414;2023-10-19T12:30:24;16.00;99.90
12264;DHT22;6194;49.010;8.414;2023-10-19T12:32:52;16.10;99.90
12264;DHT22;6194;49.010;8.414;2023-10-19T12:35:18;16.30;99.90
12264;DHT22;6194;49.010;8.414;2023-10-19T12:37:50;16.30;99.90
12264;DHT22;6194;49.010;8.414;2023-10-19T12:40:21;16.50;99.90
12264;DHT22;6194;49.010;8.414;2023-10-19T12:42:54;16.40;99.90
12264;DHT22;6194;49.010;8.414;2023-10-19T12:45:24;16.30;99.90
12264;DHT22;6194;49.010;8.414;2023-10-19T12:47:50;16.30;99.90
12264;DHT22;6194;49.010;8.414;2023-10-19T12:50:18;16.30;99.90
12264;DHT22;6194;49.010;8.414;2023-10-19T12:52:48;16.30;99.90
12264;DHT22;6194;49.010;8.414;2023-10-19T12:55:15;16.40;99.90
12264;DHT22;6194;49.010;8.414;2023-10-19T12:57:40;16.50;99.90
12264;DHT22;6194;49.010;8.414;2023-10-19T13:00:07;16.60;99.90
12264;DHT22;6194;49.010;8.414;2023-10-19T13:02:53;16.70;99.90
12264;DHT22;6194;49.010;8.414;2023-10-19T13:05:32;16.80;99.90
12264;DHT22;6194;49.010;8.414;2023-10-19T13:07:58;16.90;99.90
12264;DHT22;6194;49.010;8.414;2023-10-19T13:10:28;17.00;99.90
12264;DHT22;6194;49.010;8.414;2023-10-19T13:12:54;17.00;99.90
12264;DHT22;6194;49.010;8.414;2023-10-19T13:15:20;17.00;99.90
12264;DHT22;6194;49.010;8.414;2023-10-19T13:17:48;17.00;99.90
12264;DHT22;6194;49.010;8.414;2023-10-19T13:20:13;17.00;99.90
12264;DHT22;6194;49.010;8.414;2023-10-19T13:22:43;17.10;99.90
12264;DHT22;6194;49.010;8.414;2023-10-19T13:25:10;17.10;99.90
12264;DHT22;6194;49.010;8.414;2023-10-19T13:27:39;17.10;99.90
12264;DHT22;6194;49.010;8.414;2023-10-19T13:30:07;17.00;99.90
12264;DHT22;6194;49.010;8.414;2023-10-19T13:32:36;17.00;99.90
12264;DHT22;6194;49.010;8.414;2023-10-19T13:35:02;16.90;99.90
12264;DHT22;6194;49.010;8.414;2023-10-19T13:37:27;16.70;99.90
12264;DHT22;6194;49.010;8.414;2023-10-19T13:39:53;16.60;99.90
12264;DHT22;6194;49.010;8.414;2023-10-19T13:42:20;16.60;99.90
12264;DHT22;6194;49.010;8.414;2023-10-19T13:44:47;16.60;99.90
12264;DHT22;6194;49.010;8.414;2023-10-19T13:47:12;16.50;99.90
12264;DHT22;6194;49.010;8.414;2023-10-19T13:49:38;16.50;99.90
12264;DHT22;6194;49.010;8.414;2023-10-19T13:52:04;16.30;99.90
12264;DHT22;6194;49.010;8.414;2023-10-19T13:54:34;16.30;99.90
12264;DHT22;6194;49.010;8.414;2023-10-19T13:57:02;16.20;99.90
12264;DHT22;6194;49.010;8.414;2023-10-19T13:59:30;16.10;99.90
12264;DHT22;6194;49.010;8.414;2023-10-19T14:01:58;15.90;99.90
12264;DHT22;6194;49.010;8.414;2023-10-19T14:04:24;15.80;99.90
12264;DHT22;6194;49.010;8.414;2023-10-19T14:06:51;15.80;99.90
12264;DHT22;6194;49.010;8.414;2023-10-19T14:09:16;15.70;99.90
12264;DHT22;6194;49.010;8.414;2023-10-19T14:11:43;15.70;99.90
12264;DHT22;6194;49.010;8.414;2023-10-19T14:14:10;15.70;99.90
12264;DHT22;6194;49.010;8.414;2023-10-19T14:16:36;15.70;99.90
12264;DHT22;6194;49.010;8.414;2023-10-19T14:19:02;15.80;99.90
12264;DHT22;6194;49.010;8.414;2023-10-19T14:21:29;15.80;99.90
12264;DHT22;6194;49.010;8.414;2023-10-19T14:23:55;15.90;99.90
12264;DHT22;6194;49.010;8.414;2023-10-19T14:26:20;15.90;99.90
12264;DHT22;6194;49.010;8.414;2023-10-19T14:28:46;16.00;99.90
12264;DHT22;6194;49.010;8.414;2023-10-19T14:31:12;16.10;99.90
12264;DHT22;6194;49.010;8.414;2023-10-19T14:33:39;16.10;99.90
12264;DHT22;6194;49.010;8.414;2023-10-19T14:36:05;16.20;99.90
12264;DHT22;6194;49.010;8.414;2023-10-19T14:38:31;16.20;99.90
12264;DHT22;6194;49.010;8.414;2023-10-19T14:41:00;16.20;99.90
12264;DHT22;6194;49.010;8.414;2023-10-19T14:43:26;16.20;99.90
12264;DHT22;6194;49.010;8.414;2023-10-19T14:45:54;16.10;99.90
12264;DHT22;6194;49.010;8.414;2023-10-19T14:48:19;16.00;99.90
12264;DHT22;6194;49.010;8.414;2023-10-19T14:50:47;16.20;99.90
12264;DHT22;6194;49.010;8.414;2023-10-19T14:53:12;16.30;99.90
12264;DHT22;6194;49.010;8.414;2023-10-19T14:55:38;16.50;99.90
12264;DHT22;6194;49.010;8.414;2023-10-19T14:58:04;16.50;99.90
12264;DHT22;6194;49.010;8.414;2023-10-19T15:00:32;16.60;99.90
12264;DHT22;6194;49.010;8.414;2023-10-19T15:03:04;16.60;99.90
12264;DHT22;6194;49.010;8.414;2023-10-19T15:05:33;16.50;99.90
12264;DHT22;6194;49.010;8.414;2023-10-19T15:08:02;16.40;99.90
12264;DHT22;6194;49.010;8.414;2023-10-19T15:10:30;16.20;99.90
12264;DHT22;6194;49.010;8.414;2023-10-19T15:12:55;16.20;99.90
12264;DHT22;6194;49.010;8.414;2023-10-19T15:15:28;16.10;99.90
12264;DHT22;6194;49.010;8.414;2023-10-19T15:17:55;16.10;99.90
12264;DHT22;6194;49.010;8.414;2023-10-19T15:20:30;16.10;99.90
12264;DHT22;6194;49.010;8.414;2023-10-19T15:22:56;16.00;99.90
12264;DHT22;6194;49.010;8.414;2023-10-19T15:25:23;16.00;99.90
12264;DHT22;6194;49.010;8.414;2023-10-19T15:27:52;16.00;99.90
12264;DHT22;6194;49.010;8.414;2023-10-19T15:30:19;15.90;99.90
12264;DHT22;6194;49.010;8.414;2023-10-19T15:32:49;15.90;99.90
12264;DHT22;6194;49.010;8.414;2023-10-19T15:35:16;15.80;99.90
12264;DHT22;6194;49.010;8.414;2023-10-19T15:37:46;15.80;99.90
12264;DHT22;6194;49.010;8.414;2023-10-19T15:40:14;15.80;99.90
12264;DHT22;6194;49.010;8.414;2023-10-19T15:42:40;15.80;99.90
12264;DHT22;6194;49.010;8.414;2023-10-19T15:45:09;15.70;99.90
12264;DHT22;6194;49.010;8.414;2023-10-19T15:47:36;15.70;99.90
12264;DHT22;6194;49.010;8.414;2023-10-19T15:50:02;15.70;99.90
12264;DHT22;6194;49.010;8.414;2023-10-19T15:52:28;15.70;99.90
12264;DHT22;6194;49.010;8.414;2023-10-19T15:54:54;15.70;99.90
12264;DHT22;6194;49.010;8.414;2023-10-19T15:57:20;15.70;99.90
12264;DHT22;6194;49.010;8.414;2023-10-19T15:59:46;15.70;99.90
12264;DHT22;6194;49.010;8.414;2023-10-19T16:02:13;15.70;99.90
12264;DHT22;6194;49.010;8.414;2023-10-19T16:04:40;15.70;99.90